Terminal Aerodrome Forecast
Issued by NWS Springfield, MO

Home | Current Version | Previous Version | Text Only | Print | Product List | Glossary On
Versions: 1 2 3 4 5 6 7 8 9 10 11 12 13 14 15 16 17
939
FTUS43 KSGF 221120
TAFSGF
TAF
KSGF 221120Z 2212/2312 08012KT P6SM OVC080
     FM221600 10014G20KT P6SM OVC050
     FM230300 15014G20KT P6SM -DZ SCT025 OVC045=

USA.gov is the U.S. government's official web portal to all federal, state and local government web resources and services.